createdAt,value
2023-08-17T00:08:42.852Z,242
2023-08-17T00:23:42.842Z,245
2023-08-17T00:38:42.840Z,243
2023-08-17T00:53:42.832Z,244
2023-08-17T01:08:42.851Z,242
2023-08-17T01:23:42.840Z,244
2023-08-17T01:38:42.868Z,243
2023-08-17T01:53:42.824Z,243
2023-08-17T02:08:42.830Z,245
2023-08-17T02:23:42.853Z,245
2023-08-17T02:38:42.861Z,245
2023-08-17T02:53:42.832Z,245
2023-08-17T03:08:42.887Z,245
2023-08-17T03:23:42.851Z,248
2023-08-17T03:38:42.895Z,248
2023-08-17T03:53:42.841Z,248
2023-08-17T04:08:42.857Z,246
2023-08-17T04:23:42.880Z,249
2023-08-17T04:38:42.864Z,247
2023-08-17T04:53:42.844Z,246
2023-08-17T05:08:42.873Z,247
2023-08-17T05:23:42.877Z,245
2023-08-17T05:38:42.875Z,248
2023-08-17T05:53:42.854Z,248
2023-08-17T06:08:42.904Z,248
2023-08-17T06:23:42.860Z,248
2023-08-17T06:38:42.860Z,248
2023-08-17T06:53:42.863Z,246
2023-08-17T07:08:42.850Z,244
2023-08-17T07:23:42.850Z,246
2023-08-17T07:38:42.886Z,247
2023-08-17T07:53:42.865Z,245
2023-08-17T08:08:42.905Z,244
2023-08-17T08:23:42.880Z,244
2023-08-17T08:38:42.863Z,245
2023-08-17T08:53:42.862Z,244
2023-08-17T09:08:42.902Z,246
2023-08-17T09:23:42.881Z,246
2023-08-17T09:38:42.888Z,246
2023-08-17T09:53:42.881Z,244
2023-08-17T10:08:42.879Z,244
2023-08-17T10:23:43.217Z,244
2023-08-17T10:38:42.895Z,242
2023-08-17T10:53:42.909Z,242
2023-08-17T11:08:43.447Z,243
2023-08-17T11:23:42.915Z,245
2023-08-17T11:38:42.932Z,245
2023-08-17T11:53:42.894Z,242
2023-08-17T12:08:44.843Z,245
2023-08-17T12:23:42.913Z,245
2023-08-17T12:38:42.909Z,244
2023-08-17T12:53:42.890Z,248
2023-08-17T13:08:42.916Z,244
2023-08-17T13:23:42.900Z,244
2023-08-17T13:38:43.337Z,244
2023-08-17T13:53:42.882Z,246
2023-08-17T14:08:42.906Z,246
2023-08-17T14:23:42.950Z,247
2023-08-17T14:38:42.897Z,246
2023-08-17T14:53:42.881Z,245
2023-08-17T15:08:42.887Z,243
2023-08-17T15:23:42.891Z,245
2023-08-17T15:38:42.916Z,246
2023-08-17T15:53:42.887Z,245
2023-08-17T16:08:49.077Z,247
2023-08-17T16:23:42.926Z,248
2023-08-17T16:38:42.886Z,246
2023-08-17T16:53:44.416Z,247
2023-08-17T17:08:42.930Z,249
2023-08-17T17:23:43.943Z,249
2023-08-17T17:38:42.928Z,248
2023-08-17T17:53:42.904Z,248
2023-08-17T18:08:42.935Z,249
2023-08-17T18:23:42.917Z,248
2023-08-17T18:38:42.913Z,247
2023-08-17T18:53:42.906Z,250
2023-08-17T19:08:42.923Z,249
2023-08-17T19:23:42.919Z,247
2023-08-17T19:38:42.954Z,248
2023-08-17T19:53:42.937Z,250
2023-08-17T20:08:42.965Z,248
2023-08-17T20:23:42.966Z,248
2023-08-17T20:38:42.946Z,249
2023-08-17T20:53:42.931Z,249
2023-08-17T21:08:42.957Z,247
2023-08-17T21:23:43.198Z,249
2023-08-17T21:38:42.963Z,248
2023-08-17T21:53:42.953Z,251
2023-08-17T22:08:42.951Z,249
2023-08-17T22:23:42.975Z,251
2023-08-17T22:38:42.965Z,251
2023-08-17T22:53:42.962Z,249
2023-08-17T23:08:42.992Z,251
2023-08-17T23:23:43.007Z,250
2023-08-17T23:38:43.095Z,251
2023-08-17T23:53:42.998Z,250
